Tierra Del Sol (445) Station Data

Red Flag Warning: No
Fire Weather Zone: 258
SDGE Region: Mountain Empire
Lat/Lon: 32.645/-116.347

Observations

Time Wind Speed/Gust Temp(F) RH Fuel Moist Fuel Temp(F) Dewpt(F) Tmax(F) Tmin(F) Accum Precip 10-min Precip SL Press(mb)
5/24 8:30am 249 6 G 10 70° 29% - - 36° 70.4° 55.5° - - 870.0
5/24 8:20am 261 6 G 10 70° 32% - - 39° 70.4° 55.5° - - 871.0
5/24 8:10am 270 5 G 9 68° 39% - - 42° 69.3° 55.5° - - 873.0
5/24 8:00am 273 4 G 7 66° 42% - - 43° 68.4° 55.5° - - 874.0
5/24 7:50am 282 3 G 6 66° 45% - - 44° 68.4° 55.5° - - 875.0
5/24 7:40am 285 3 G 6 66° 44% - - 44° 68.4° 55.5° - - 874.0
5/24 7:30am 247 3 G 7 67° 38% - - 41° 68.4° 55.5° - - 872.0
5/24 7:20am 234 4 G 8 68° 33% - - 38° 68.4° 55.5° - - 870.0
5/24 7:10am 249 3 G 10 66° 37% - - 39° 67.5° 55.5° - - 871.0
5/24 7:00am 220 3 G 6 66° 32% - - 35° 66.4° 55.5° - - 868.0
5/24 6:50am 84 0 G 2 65° 36% - - 37° 65.8° 55.5° - - 870.0
5/24 6:40am 203 1 G 4 63° 36% - - 36° 63.9° 55.5° - - 869.0
5/24 6:30am 80 0 G 1 62° 41% - - 38° 63.1° 55.5° - - 871.0
5/24 6:20am 189 0 G 0 61° 47% - - 40° 61.2° 55.5° - - 873.0
5/24 6:10am 202 1 G 2 58° 51% - - 40° 60.9° 55.5° - - 875.0
5/24 6:00am 158 0 G 1 56° 57% - - 41° 60.9° 55.5° - - 877.0
5/24 5:50am 110 0 G 1 57° 57% - - 42° 60.9° 55.5° - - 877.0
5/24 5:40am 44 0 G 2 57° 59% - - 43° 60.9° 55.5° - - 878.0
5/24 5:30am 19 0 G 1 59° 55% - - 43° 60.9° 55.5° - - 876.0
5/24 5:20am 130 2 G 3 60° 52% - - 43° 60.9° 55.5° - - 875.0
5/24 5:10am 109 3 G 4 59° 54% - - 42° 60.9° 55.5° - - 876.0
5/24 5:00am 106 1 G 2 58° 56% - - 42° 60.9° 55.5° - - 877.0
5/24 4:50am 224 0 G 2 57° 58% - - 43° 60.9° 55.5° - - 877.0
5/24 4:40am 86 1 G 2 57° 60% - - 43° 60.9° 55.5° - - 878.0
5/24 4:30am 81 1 G 2 56° 63% - - 44° 60.9° 55.5° - - 880.0
5/24 4:20am 212 1 G 3 58° 62% - - 45° 60.9° 55.5° - - 879.0
5/24 4:10am 208 2 G 3 59° 63% - - 46° 60.9° 55.5° - - 880.0
5/24 4:00am 0 0 G 0 58° 66% - - 46° 60.9° 55.5° - - 881.0
5/24 3:50am 78 0 G 1 58° 64% - - 46° 60.9° 55.5° - - 880.0
5/24 3:40am 125 0 G 1 58° 65% - - 46° 60.9° 55.5° - - 880.0
5/24 3:30am 73 1 G 2 58° 65% - - 46° 60.9° 55.5° - - 880.0
5/24 3:20am 62 1 G 2 57° 66% - - 46° 60.9° 55.5° - - 881.0
5/24 3:10am 349 0 G 2 56° 66% - - 45° 60.9° 55.5° - - 880.0
5/24 3:00am 53 1 G 3 56° 67% - - 45° 60.9° 55.5° - - 881.0
5/24 2:50am 74 2 G 4 56° 66% - - 45° 60.9° 55.5° - - 880.0
5/24 2:40am 75 1 G 2 57° 59% - - 43° 60.9° 56° - - 878.0
5/24 2:30am 105 1 G 2 57° 59% - - 43° 60.9° 56.1° - - 878.0
5/24 2:20am 89 1 G 1 57° 61% - - 44° 60.9° 56.2° - - 879.0
5/24 2:10am 82 1 G 2 57° 65% - - 46° 60.9° 56.2° - - 880.0
5/24 2:00am 104 0 G 2 57° 71% - - 47° 60.9° 56.2° - - 883.0
5/24 1:50am 109 0 G 2 57° 71% - - 48° 60.9° 56.3° - - 883.0
5/24 1:40am 31 0 G 1 58° 73% - - 49° 60.9° 57.5° - - 884.0
5/24 1:30am 150 0 G 1 58° 73% - - 50° 60.9° 57.6° - - 884.0
5/24 1:20am 184 0 G 2 58° 74% - - 50° 60.9° 57.6° - - 884.0
5/24 1:10am 164 0 G 2 59° 71% - - 49° 60.9° 57.6° - - 883.0
5/24 1:00am 160 0 G 2 60° 69% - - 49° 60.9° 57.6° - - 883.0
5/24 12:50am 97 0 G 1 60° 68% - - 49° 60.9° 57.6° - - 882.0
5/24 12:40am 136 0 G 2 60° 65% - - 48° 60.9° 57.6° - - 881.0
5/24 12:30am 104 1 G 2 60° 64% - - 47° 60.8° 57.6° - - 880.0
5/24 12:20am 65 1 G 3 58° 64% - - 46° 59.1° 57.6° - - 881.0
5/24 12:10am 359 0 G 1 58° 65% - - 46° 59.1° 57.6° - - 881.0
5/24 12:00am 58 0 G 2 60° 62% - - 47° 92.1° 55° - - 880.0
5/23 11:50pm 53 0 G 2 60° 60% - - 46° 92.1° 55° - - 879.0
5/23 11:40pm 234 0 G 2 62° 57% - - 46° 92.1° 55° - - 878.0
5/23 11:30pm 89 1 G 3 62° 58% - - 47° 92.1° 55° - - 879.0
5/23 11:20pm 253 1 G 2 61° 61% - - 48° 92.1° 55° - - 880.0
5/23 11:10pm 107 1 G 4 60° 65% - - 48° 92.1° 55° - - 881.0
5/23 11:00pm 150 1 G 3 61° 66% - - 50° 92.1° 55° - - 882.0
5/23 10:50pm 206 0 G 1 61° 70% - - 51° 92.1° 55° - - 884.0
5/23 10:40pm 165 0 G 1 60° 70% - - 51° 92.1° 55° - - 884.0
5/23 10:30pm 165 0 G 1 61° 69% - - 51° 92.1° 55° - - 883.0
5/23 10:20pm 0 0 G 0 62° 65% - - 50° 92.1° 55° - - 882.0
5/23 10:10pm 166 0 G 1 64° 62% - - 51° 92.1° 55° - - 881.0
5/23 10:00pm 168 0 G 1 65° 61% - - 51° 92.1° 55° - - 881.0
5/23 9:50pm 197 1 G 1 65° 60% - - 51° 92.1° 55° - - 881.0
5/23 9:40pm 90 1 G 2 65° 59% - - 51° 92.1° 55° - - 881.0
5/23 9:30pm 102 0 G 2 65° 61% - - 51° 92.1° 55° - - 881.0
5/23 9:20pm 199 0 G 1 65° 60% - - 50° 92.1° 55° - - 881.0
5/23 9:10pm 204 0 G 1 65° 58% - - 50° 92.1° 55° - - 880.0
5/23 9:00pm 180 0 G 2 66° 57% - - 50° 92.1° 55° - - 880.0
5/23 8:50pm 194 1 G 3 67° 55% - - 50° 92.1° 55° - - 879.0
5/23 8:40pm 189 2 G 3 68° 53% - - 50° 92.1° 55° - - 879.0
5/23 8:30pm 178 1 G 3 69° 51% - - 50° 92.1° 55° - - 879.0
5/23 8:20pm 225 2 G 3 70° 49% - - 50° 92.1° 55° - - 879.0
5/23 8:10pm 236 2 G 4 71° 47% - - 50° 92.1° 55° - - 878.0
5/23 8:00pm 239 3 G 4 72° 45% - - 50° 92.1° 55° - - 878.0
5/23 7:50pm 245 4 G 7 73° 43% - - 49° 92.1° 55° - - 877.0
5/23 7:40pm 247 5 G 9 75° 40% - - 49° 92.1° 55° - - 877.0
5/23 7:30pm 248 5 G 9 76° 36% - - 48° 92.1° 55° - - 876.0
5/23 7:20pm 252 6 G 10 77° 33% - - 46° 92.1° 55° - - 875.0
5/23 7:10pm 250 7 G 12 79° 30% - - 44° 92.1° 55° - - 875.0
5/23 7:00pm 252 7 G 13 80° 27% - - 43° 92.1° 55° - - 874.0
5/23 6:50pm 257 7 G 13 80° 26% - - 42° 92.1° 55° - - 874.0
5/23 6:40pm 259 7 G 13 81° 24% - - 41° 92.1° 55° - - 874.0
5/23 6:30pm 245 7 G 13 82° 22% - - 39° 92.1° 55° - - 873.0
5/23 6:20pm 247 8 G 13 83° 20% - - 37° 92.1° 55° - - 873.0
5/23 6:10pm 243 9 G 14 83° 20% - - 38° 92.1° 55° - - 873.0
5/23 6:00pm 245 8 G 13 83° 20% - - 38° 92.1° 55° - - 873.0
5/23 5:50pm 254 7 G 14 84° 20% - - 39° 92.1° 55° - - 874.0
5/23 5:40pm 271 8 G 12 85° 17% - - 35° 92.1° 55° - - 873.0
5/23 5:30pm 264 8 G 15 85° 14% - - 31° 92.1° 55° - - 872.0
5/23 5:20pm 255 8 G 16 85° 14% - - 31° 92.1° 55° - - 872.0
5/23 5:10pm 250 8 G 16 85° 14% - - 31° 92.1° 55° - - 872.0
5/23 5:00pm 261 7 G 15 85° 15% - - 33° 92.1° 55° - - 873.0
5/23 4:50pm 273 9 G 15 84° 17% - - 34° 92.1° 55° - - 873.0
5/23 4:40pm 267 9 G 15 84° 21% - - 40° 92.1° 55° - - 875.0
5/23 4:30pm 264 10 G 16 84° 20% - - 39° 92.1° 55° - - 875.0
5/23 4:20pm 261 9 G 18 85° 21% - - 40° 92.1° 55° - - 875.0
5/23 4:10pm 267 9 G 18 85° 23% - - 43° 92.1° 55° - - 877.0
5/23 4:00pm 267 10 G 18 85° 23% - - 42° 92.1° 55° - - 877.0
5/23 3:50pm 265 11 G 19 86° 21% - - 41° 92.1° 55° - - 876.0
5/23 3:40pm 263 10 G 21 87° 19% - - 39° 92.1° 55° - - 876.0
5/23 3:30pm 252 11 G 21 88° 15% - - 34° 92.1° 55° - - 875.0
5/23 3:20pm 245 10 G 19 88° 14% - - 32° 92.1° 55° - - 875.0
5/23 3:10pm 251 10 G 18 88° 13% - - 31° 92.1° 55° - - 875.0
5/23 3:00pm 237 11 G 17 89° 11% - - 28° 92.1° 55° - - 874.0
5/23 2:50pm 249 11 G 19 88° 13% - - 31° 92.1° 55° - - 875.0
5/23 2:40pm 250 11 G 18 88° 13% - - 32° 92.1° 55° - - 876.0
5/23 2:30pm 263 10 G 19 89° 12% - - 31° 92.1° 55° - - 876.0
5/23 2:20pm 252 10 G 19 89° 12% - - 30° 92.1° 55° - - 876.0
5/23 2:10pm 263 11 G 19 89° 13% - - 31° 92.1° 55° - - 876.0
5/23 2:00pm 268 8 G 18 90° 13% - - 33° 92.1° 55° - - 876.0
5/23 1:50pm 256 9 G 18 90° 14% - - 34° 92.1° 55° - - 876.0
5/23 1:40pm 261 7 G 14 91° 13% - - 33° 92.1° 55° - - 876.0
5/23 1:30pm 320 4 G 11 91° 9% - - 23° 91.7° 55° - - 874.0
5/23 1:20pm 339 4 G 11 91° 8% - - 23° 91.7° 55° - - 874.0
5/23 1:10pm 12 5 G 11 91° 9% - - 23° 91.6° 55° - - 874.0
5/23 1:00pm 335 4 G 8 91° 8% - - 23° 91.6° 55° - - 875.0
5/23 12:50pm 10 4 G 11 90° 9% - - 23° 91.2° 55° - - 875.0
5/23 12:40pm 77 8 G 17 90° 9% - - 23° 90.8° 55° - - 875.0
5/23 12:30pm 91 6 G 14 90° 9% - - 23° 90.8° 55° - - 875.0
5/23 12:20pm 145 6 G 13 90° 9% - - 22° 90.8° 55° - - 875.0
5/23 12:10pm 94 7 G 15 90° 9% - - 23° 90.8° 55° - - 875.0
5/23 12:00pm 60 5 G 14 90° 9% - - 24° 90.8° 55° - - 875.0
5/23 11:50am 86 5 G 13 90° 9% - - 24° 90.8° 55° - - 875.0
5/23 11:40am 108 7 G 14 90° 9% - - 25° 90.4° 55° - - 875.0
5/23 11:30am 76 7 G 15 89° 9% - - 24° 89.7° 55° - - 875.0
5/23 11:20am 68 6 G 13 89° 9% - - 23° 89.7° 55° - - 875.0
5/23 11:10am 84 5 G 12 89° 9% - - 23° 89.7° 55° - - 875.0
5/23 11:00am 67 8 G 14 88° 10% - - 24° 89.7° 55° - - 875.0
5/23 10:50am 58 7 G 16 89° 9% - - 24° 89.7° 55° - - 876.0
5/23 10:40am 89 4 G 10 88° 10% - - 25° 89.4° 55° - - 876.0
5/23 10:30am 134 4 G 11 89° 10% - - 25° 89.4° 55° - - 876.0
5/23 10:20am 136 4 G 8 88° 10% - - 26° 89.4° 55° - - 876.0
5/23 10:10am 90 4 G 9 88° 11% - - 26° 89.4° 55° - - 875.0
5/23 10:00am 133 2 G 6 89° 10% - - 26° 89.4° 55° - - 875.0
5/23 9:50am 52 2 G 4 87° 11% - - 26° 88.3° 55° - - 874.0
5/23 9:40am 213 2 G 5 87° 13% - - 29° 87.7° 55° - - 875.0
5/23 9:30am 248 2 G 5 86° 14% - - 31° 86.4° 55° - - 875.0
5/23 9:20am 275 3 G 5 85° 14% - - 30° 86.4° 55° - - 874.0
5/23 9:10am 279 3 G 5 85° 13% - - 29° 86.4° 55° - - 873.0
5/23 9:00am 280 2 G 3 85° 14% - - 30° 86.4° 55° - - 873.0
5/23 8:50am 303 2 G 4 84° 21% - - 39° 86.4° 55° - - 875.0
5/23 8:40am 273 2 G 5 83° 21% - - 39° 86.4° 55° - - 874.0
5/23 8:30am 281 2 G 3 84° 20% - - 38° 86.4° 55° - - 873.0
5/23 8:20am 322 0 G 1 86° 21% - - 41° 86.4° 55° - - 873.0
5/23 8:10am 33 0 G 1 85° 20% - - 40° 85.6° 55° - - 872.0
5/23 8:00am 31 0 G 1 84° 21% - - 39° 85.2° 55° - - 871.0
5/23 7:50am 119 2 G 3 80° 21% - - 37° 81.6° 55° - - 870.0
5/23 7:40am 102 2 G 3 79° 29% - - 44° 79.6° 55° - - 872.0
5/23 7:30am 120 2 G 3 78° 25% - - 39° 78.7° 55° - - 870.0
5/23 7:20am 127 3 G 4 77° 21% - - 33° 77.2° 55° - - 868.0
5/23 7:10am 127 3 G 4 75° 23% - - 35° 75.8° 55° - - 868.0
5/23 7:00am 110 2 G 4 74° 24% - - 35° 75.2° 55° - - 868.0
5/23 6:50am 125 2 G 4 74° 24% - - 35° 74.9° 55° - - 868.0
5/23 6:40am 115 4 G 5 74° 22% - - 33° 74.1° 55° - - 867.0
5/23 6:30am 120 4 G 5 73° 21% - - 31° 73.9° 55° - - 866.0
5/23 6:20am 128 4 G 5 72° 22% - - 30° 73° 55° - - 866.0
5/23 6:10am 123 5 G 5 72° 20% - - 29° 72.7° 55° - - 865.0
5/23 6:00am 117 5 G 6 71° 20% - - 28° 71.8° 55° - - 865.0